Buena Vista, CO

7:33 AM MDT on October 24, 2014 (GMT -0600)
NW of Buena Vista | Change Station
CLOSE
Current Station
Personal Weather Station
Location: Buena Vista, CO
Elevation: 8200 ft
Nearby Weather Stations

Elev 8200 ft 38.86 °N, 106.17 °W | Updated 8 minutes ago

Clear
Clear
37.1 °F
Feels Like 29 °F
N
12.0
Wind Variable Wind from NW
Gusts 21.0 mph

Today
High -- | Low -- °F
--% Chance of Precip.
Yesterday
High -- | Low -- °F
Precip. -- in
7:23 AM 6:13 PM
New Moon, 0% visible
Pressure 30.40 in
Visibility 10.0 miles
Clouds Clear
Windchill 29 °F
Dew Point 24 °F
Humidity 59%
Rainfall 0.00 in
Snow Depth 0 in
UV 0 out of 12
Pollen 3.10 out of 12
Air Quality Not available.
Flu Activity Sporadic
METAR KAEJ 241315Z AUTO 00000KT 10SM CLR 01/M04 A3040 RMK AO2 T00061045

More Conditions Fewer Conditions

Pressure 30.40 in
Visibility 10.0 miles
Clouds Clear
Windchill 29 °F
Dew Point 24 °F
Humidity 59%
Rainfall 0.00 in
Snow Depth 0 in
UV 0 out of 12
Pollen 3.10 out of 12
Air Quality Not available.
Flu Activity Sporadic
METAR KAEJ 241315Z AUTO 00000KT 10SM CLR 01/M04 A3040 RMK AO2 T00061045

More Conditions Fewer Conditions

10-Day Weather Forecast

Almanac

Astronomy

Oct. 24, 2014 Rise Set
Actual Time 7:23 AM MDT 6:13 PM MDT
Civil Twilight 6:56 AM MDT 6:40 PM MDT
Nautical Twilight 6:24 AM MDT 7:12 PM MDT
Astronomical Twilight 5:53 AM MDT 7:42 PM MDT
Moon 8:04 AM MDT 6:56 PM MDT
Length of Visible Light 11h 44m
Length of Day
10h 50m
Tomorrow will be 2m 20s shorter.
New Moon, 0% of the Moon is Illuminated
Today
New Moon
Oct 30
First Quarter
Nov 6
Full
Nov 14
Last Quarter
Nov 22
New

Today's Extremes

State Highs State Lows

Community

WunderPhotos

Upload Photos

1,764,550 photos uploaded!

WunderBlogs® & News

Nearby

Snow Depth

Station Depth Elevation
Rough And Tumble 0 in 10360 ft
Park Cone 1 in 9600 ft
Brumley 0 in 10600 ft
Porphyry Creek 0 in 10760 ft
Independence Pass 1 in 10600 ft

Earthquake Activity

City Distance Mag. Time & Date
No recent earthquake activity has been reported nearby.
Minimum magnitude displayed is 2.5.

Coastal Water Temperatures

Place Temperature
No Stations Reporting

Nearby Weather Stations